Tiempo atmosférico en la estación meteorológica de Morón De La Frontera, Sevilla (87 m.)



Fecha
DESCASC
Temp. máxima en grados centígrados (hora)
DESCASC
Temp. mínima en grados centígrados (hora)
DESCASC
Temp. media en grados centígrados
DESCASC
Racha de viento máxima en m/sg (hora)
DESCASC
Velocidad máxima media en intervalos de 10 minutos(hora)
DESCASC
Precipitaciones diarias en mm
DESCASC
Precipitaciones de 00:00 a 06:00 en mm
DESCASC
Precipitaciones de 06:00 a 12:00 en mm
DESCASC
Precipitaciones de 12:00 a 18:00 en mm
DESCASC
Precipitaciones de 18:00 a 24:00 en mm
DESCASC
02-04-2020 16.1 (16:50) 7.9 (08:30) 12 6.94 (02:50) 5 (03:30) 10.3 8.6 0 1.7 0
01-04-2020 17 (14:50) 8.3 (05:10) 12.7 11.67 (18:30) 6.67 (18:40) 1.4 0.1 0 0.1 1.2
31-03-2020 19 (15:40) 11.1 (00:00) 15.1 13.33 (16:10) 8.33 (16:10) 19.5 14.5 2.6 2.2 0.2
30-03-2020 18.6 (14:10) 8.9 (08:00) 13.8 7.78 (16:10) 4.44 (16:00) 11.8 0 0 2.3 9.5
29-03-2020 20.8 (15:40) 7.8 (00:00) 14.3 7.22 (19:30) 4.72 (19:40) 0 0 0 0 0
28-03-2020 20.1 (16:30) 6.9 (00:00) 13.5 6.94 (19:40) 3.89 (19:10) 0 0 0 0 0
27-03-2020 18 (17:10) 7.9 (00:00) 13 10.56 (13:20) 6.11 (13:30) 0 0 0 0 0
26-03-2020 22.4 (16:30) 10.4 (00:00) 16.4 11.39 (17:50) 6.94 (18:00) 0 0 0 0 0
25-03-2020 19 (16:10) 11.4 (00:00) 15.2 6.67 (13:20) 4.17 (11:30) 1.3 1.2 0.1 0 0
24-03-2020 19.6 (17:10) 9.2 (00:00) 14.4 6.11 (10:40) 4.17 (19:30) 0 0 0 0 0
23-03-2020 18.5 (15:10) 5.3 (00:00) 11.9 9.17 (14:30) 4.44 (13:30) 3.5 0 0 1 2.5
22-03-2020 15.6 (15:10) 7.2 (05:20) 11.4 7.22 (15:20) 4.72 (15:20) 3.1 0.4 0.2 2.5 0
21-03-2020 15.5 (00:10) 8.8 (00:00) 12.2 12.5 (16:40) 8.06 (16:20) 27.1 12.9 0 11.9 2.3
20-03-2020 20.3 (14:10) 10.4 (00:00) 15.3 5 (20:50) 3.33 (19:10) 0 0 0 0 0
19-03-2020 22.6 (16:20) 11 (00:00) 16.8 9.17 (10:10) 5.83 (10:10) 0 0 0 0 0
18-03-2020 22.6 (15:20) 9.8 (00:00) 16.2 12.78 (13:40) 8.06 (14:10) 0 0 0 0 0
17-03-2020 17.5 (14:00) 7.2 (00:00) 12.3 12.22 (15:10) 6.67 (15:00) 2.6 2.1 0.5 0 0
16-03-2020 16.3 (14:10) 8.1 (00:00) 12.2 11.67 (20:00) 7.22 (20:10) 0.7 0 0 0 0.7
15-03-2020 23.3 (16:50) 8.9 (00:00) 16.1 7.5 (20:20) 4.72 (19:00) 0 0 0 0 0
14-03-2020 22 (17:20) 9 (00:00) 15.5 3.61 (00:30) 2.5 (01:40) 0 0 0 0 0
13-03-2020 23.1 (16:00) 8.7 (02:20) 15.9 7.78 (12:00) 3.33 (17:30) 0 0 0 0 0
12-03-2020 25.5 (16:10) 8.5 (00:00) 17 7.22 (15:50) 3.33 (15:40) 0 0 0 0 0
11-03-2020 30.8 (17:10) 7.5 (00:00) 19.1 5 (12:00) 2.22 (14:30) 0 0 0 0 0
10-03-2020 26.8 (15:50) 9.1 (00:00) 17.9 8.61 (13:10) 5.56 (12:30) 0 0 0 0 0
09-03-2020 22.4 (17:20) 6.1 (00:00) 14.2 5.83 (14:00) 3.61 (14:00) 0 0 0 0 0
08-03-2020 22.6 (15:50) 3.4 (00:00) 13 5.28 (12:40) 3.33 (09:50) 0 0 0 0 0
07-03-2020 20.1 (15:20) 4.6 (00:00) 12.4 9.44 (14:50) 5.83 (13:10) 0 0 0 0 0
06-03-2020 18.9 (17:10) 4.3 (00:00) 11.6 7.78 (15:00) 3.89 (15:00) 0 0 0 0 0
05-03-2020 19.3 (17:20) 6.8 (00:00) 13 8.33 (11:10) 4.72 (11:10) 0 0 0 0 0

Gráficas

Temp. máximas Temp. mínimas Temp. medias Precipitaciones Rachas de viento máximas Velocidades máximas media en intervalos de 10 minutos

Datos horarios

Fecha y hora oficial Temperatura (ºC) Velocidad del viento (km/h) Dirección del viento Racha (km/h) Dirección de racha Precipitación (mm) Presión (hPa) Tendencia (hPa) Humedad (%)
2020-04-03 23:00:00 13.8 6 Sudeste 16 Sudeste 0 -- -- 56
2020-04-03 22:00:00 15.9 6 Sudeste 16 Sudeste 0 -- -- 51
2020-04-03 21:00:00 16.8 4 Sudeste 15 Sur 0 -- -- 52
2020-04-03 20:00:00 18.6 8 Sur 19 Sudeste 0 -- -- 46
2020-04-03 19:00:00 21.2 10 Este 24 Este 0 -- -- 37
2020-04-03 18:00:00 21.4 11 Este 24 Este 0 -- -- 43
2020-04-03 17:00:00 20.8 9 Nordeste 23 Nordeste 0 -- -- 43
2020-04-03 16:00:00 20.3 11 Este 23 Nordeste 0 -- -- 41
2020-04-03 15:00:00 19.7 7 Este 18 Nordeste 0 -- -- 47
2020-04-03 14:00:00 18.2 9 Este 18 Este 0 -- -- 55
2020-04-03 13:00:00 16.9 3 Nordeste 11 Nordeste 0 -- -- 61
2020-04-03 12:00:00 15.3 3 Nordeste 8 Nordeste 0 -- -- 64
2020-04-03 11:00:00 13.9 0 Calma 6 Este 0 -- -- 69
2020-04-03 10:00:00 10.7 5 Nordeste 7 Nordeste 0 -- -- 82
2020-04-03 09:00:00 8.2 2 Oeste 7 Este 0 -- -- 91
2020-04-03 08:00:00 6.9 0 Calma 5 Sur 0 -- -- 90
2020-04-03 07:00:00 7.5 3 Sudoeste 11 Sur 0 -- -- 90
2020-04-03 06:00:00 7.8 7 Sur 11 Sur 0 -- -- 90
2020-04-03 05:00:00 8.1 6 Sudoeste 11 Sudoeste 0 -- -- 89
2020-04-03 04:00:00 9.4 7 Sudoeste 14 Sudoeste 0 -- -- 87
2020-04-03 03:00:00 10.1 8 Sudoeste 15 Sudoeste 0 -- -- 86
2020-04-03 02:00:00 10.2 12 Sudoeste 17 Sudoeste 0 -- -- 87
2020-04-03 01:00:00 10.1 7 Sudoeste 14 Sudoeste 0 -- -- 87
2020-04-03 00:00:00 10.1 7 Sudoeste 12 Sur 0 -- -- 87
2020-04-02 23:00:00 10.6 5 Sudoeste 10 Sudoeste 0 -- -- 86
2020-04-02 22:00:00 11.2 5 Sur 8 Sudoeste 0 -- -- 82
2020-04-02 21:00:00 13.3 5 Sudoeste 13 Sudoeste 0 -- -- 69
2020-04-02 20:00:00 14.7 7 Sudoeste 11 Sudoeste 0 -- -- 58
2020-04-02 19:00:00 15.5 0 Calma 14 Norte 0 -- -- 53
2020-04-02 18:00:00 15.7 5 Norte 15 Norte 0 -- -- 51
2020-04-02 17:00:00 15.4 8 Norte 16 Norte 0 -- -- 52
2020-04-02 16:00:00 15.1 0 Calma 11 Noroeste 0 -- -- 57
2020-04-02 15:00:00 13.8 4 Sudoeste 10 Sudoeste 0.2 -- -- 68
2020-04-02 14:00:00 11.5 3 Nordeste 20 Sudoeste 1.2 -- -- 73
2020-04-02 13:00:00 10.8 9 Oeste 18 Oeste 0.3 -- -- 76
2020-04-02 12:00:00 11.6 10 Oeste 20 Sudoeste 0 -- -- 67
2020-04-02 11:00:00 9.9 11 Sudoeste 21 Sudoeste 0 -- -- 79
2020-04-02 10:00:00 10 10 Sudoeste 15 Sudoeste 0 -- -- 89
2020-04-02 09:00:00 9.8 5 Sur 10 Sudoeste 0 -- -- 91
2020-04-02 08:00:00 9.5 8 Sudoeste 13 Sudoeste 0 -- -- 90
2020-04-02 07:00:00 9.9 6 Sudoeste 15 Sudoeste 0 -- -- 91
2020-04-02 06:00:00 10.3 6 Sudoeste 19 Sudoeste 0.3 -- -- 91
2020-04-02 05:00:00 10.7 15 Sudoeste 23 Sudoeste 3.1 -- -- 91
2020-04-02 04:00:00 10.8 14 Sudoeste 25 Sur 0.2 -- -- 90
2020-04-02 03:00:00 10.9 12 Sudoeste 25 Sudoeste 1.3 -- -- 90
2020-04-02 02:00:00 10.9 4 Sur 12 Sudoeste 1.6 -- -- 88
2020-04-02 01:00:00 11 0 Calma 19 Sudoeste 2.1 -- -- 87
2020-04-02 00:00:00 11 13 Sudoeste 22 Sudoeste 0 -- -- 86
2020-04-01 23:00:00 10.4 11 Sur 15 Sur 0 -- -- 87
2020-04-01 22:00:00 10.6 11 Sudoeste 16 Sudoeste 0 -- -- 82
2020-04-01 21:00:00 12.2 10 Sudoeste 18 Sudoeste 0 -- -- 81
2020-04-01 20:00:00 13 9 Sudoeste 20 Sudoeste 0.1 -- -- 76
2020-04-01 19:00:00 11.3 15 Oeste 42 Oeste 1.1 -- -- 81
2020-04-01 18:00:00 15.4 9 Oeste 21 Oeste 0 -- -- 54
2020-04-01 17:00:00 15.2 3 Oeste 37 Oeste 0 -- -- 62
2020-04-01 16:00:00 16.3 17 Sudoeste 32 Sudoeste 0 -- -- 46
2020-04-01 15:00:00 15.9 14 Sudoeste 37 Sudeste 0.1 -- -- 46
2020-04-01 14:00:00 15.8 8 Oeste 19 Sudoeste 0 -- -- 42
2020-04-01 13:00:00 15 8 Sudoeste 18 Sur 0 -- -- 53
2020-04-01 12:00:00 13.4 7 Sur 11 Sudeste 0 -- -- 57
2020-04-01 11:00:00 12.2 0 Calma 6 Sudoeste 0 -- -- 69
2020-04-01 10:00:00 10.7 4 Sudoeste 8 Sur 0 -- -- 85
2020-04-01 09:00:00 9.6 3 Sur 7 Sur 0 -- -- 91
2020-04-01 08:00:00 9.4 4 Oeste 7 Oeste 0 -- -- 92
2020-04-01 07:00:00 9 4 Sur 7 Sudoeste 0 -- -- 92
2020-04-01 06:00:00 8.8 4 Sudoeste 9 Sudoeste 0 -- -- 91
2020-04-01 05:00:00 8.6 5 Sur 7 Sudoeste 0 -- -- 89
2020-04-01 04:00:00 10.2 7 Sudoeste 16 Sudoeste 0.1 -- -- 88
2020-04-01 03:00:00 10 7 Sudoeste 12 Sudoeste 0 -- -- 91
2020-04-01 02:00:00 10.1 6 Sudoeste 12 Sudoeste 0 -- -- 90
2020-04-01 01:00:00 10.7 5 Sudoeste 11 Sudoeste 0 -- -- 90
2020-04-01 00:00:00 11.2 5 Sudoeste 12 Oeste 0 -- -- 87
2020-03-31 23:00:00 12.5 8 Sudoeste 21 Oeste 0 -- -- 83
2020-03-31 22:00:00 13.4 14 Oeste 23 Oeste 0 -- -- 79
2020-03-31 21:00:00 14.1 13 Sudoeste 21 Sudoeste 0 -- -- 80
2020-03-31 20:00:00 14.8 15 Oeste 33 Oeste 0.1 -- -- 77
2020-03-31 19:00:00 15.7 23 Oeste 39 Sudoeste 0.1 -- -- 72
2020-03-31 18:00:00 15.2 18 Oeste 39 Oeste 0.2 -- -- 75
2020-03-31 17:00:00 17.2 26 Oeste 48 Sudoeste 0 -- -- 61
2020-03-31 16:00:00 18.2 22 Sudoeste 45 Sudoeste 0 -- -- 57
2020-03-31 15:00:00 17.6 24 Sudoeste 46 Sudoeste 0 -- -- 63
2020-03-31 14:00:00 17.3 27 Sudoeste 48 Sudoeste 0.1 -- -- 57
2020-03-31 13:00:00 15.2 13 Sudoeste 26 Sudoeste 1.9 -- -- 82
2020-03-31 12:00:00 14.2 13 Sudoeste 26 Sudoeste 1 -- -- 82
2020-03-31 11:00:00 15.1 16 Sudoeste 24 Sur 0 -- -- 77
2020-03-31 10:00:00 13.3 15 Sudoeste 23 Sur 0 -- -- 85
2020-03-31 09:00:00 11.1 14 Sur 24 Sudoeste 0 -- -- 90
2020-03-31 08:00:00 11.7 17 Sur 27 Sur 0 -- -- 89
2020-03-31 07:00:00 12.1 20 Sudoeste 35 Sudoeste 1.6 -- -- 89
2020-03-31 06:00:00 12.5 17 Sudoeste 28 Sudoeste 0.6 -- -- 83
2020-03-31 05:00:00 12.4 18 Sudoeste 28 Sudoeste 0 -- -- 83
2020-03-31 04:00:00 11.5 4 Sudeste 20 Sudeste 0.2 -- -- 91
2020-03-31 03:00:00 11.1 9 Este 18 Sudeste 7.9 -- -- 93
2020-03-31 02:00:00 11.6 10 Este 17 Este 2.3 -- -- 93
2020-03-31 01:00:00 11.5 7 Este 17 Este 3.5 -- -- 92
2020-03-31 00:00:00 11.5 8 Este 17 Este 3.5 -- -- 92
2020-03-30 23:00:00 11.8 4 Este 15 Este 1.8 -- -- 92
2020-03-30 22:00:00 11.7 10 Este 18 Sudeste 1.8 -- -- 92
2020-03-30 21:00:00 11.7 8 Este 14 Nordeste 0.8 -- -- 91
2020-03-30 20:00:00 12.6 8 Norte 14 Norte 1.6 -- -- 86
2020-03-30 19:00:00 13.8 0 Calma 21 Oeste 0 -- -- 79
2020-03-30 18:00:00 15.6 14 Oeste 26 Oeste 0 -- -- 70
2020-03-30 17:00:00 15.6 15 Oeste 28 Sudoeste 2.2 -- -- 71
2020-03-30 16:00:00 16.7 16 Sudoeste 26 Oeste 0.1 -- -- 61
2020-03-30 15:00:00 18 9 Sudoeste 18 Sudoeste 0 -- -- 49
2020-03-30 14:00:00 17.4 6 Sudoeste 17 Oeste 0 -- -- 51
2020-03-30 13:00:00 16.8 9 Sudoeste 17 Sudoeste 0 -- -- 56
2020-03-30 12:00:00 15.9 6 Sudoeste 13 Sur 0 -- -- 64
2020-03-30 11:00:00 14.3 6 Sudoeste 10 Sudoeste 0 -- -- 75
2020-03-30 10:00:00 12.4 4 Sur 8 Sur 0 -- -- 88
2020-03-30 09:00:00 10 0 Calma 6 Sur 0 -- -- 91
2020-03-30 08:00:00 9.2 5 Sudeste 8 Sudeste 0 -- -- 90
2020-03-30 07:00:00 9.5 3 Sur 5 Sur 0 -- -- 90
2020-03-30 06:00:00 10.1 4 Sur 6 Sur 0 -- -- 89
2020-03-30 05:00:00 11.1 0 Calma 7 Sudoeste 0 -- -- 88
2020-03-30 04:00:00 11.5 5 Sudoeste 10 Sudoeste 0 -- -- 88
2020-03-30 03:00:00 11.6 6 Sur 13 Sudoeste 0 -- -- 86
2020-03-30 02:00:00 12.2 7 Sudoeste 10 Sudoeste 0 -- -- 84
2020-03-30 01:00:00 12.5 5 Sudoeste 11 Sudoeste 0 -- -- 81
2020-03-30 00:00:00 13.5 6 Oeste 15 Oeste 0 -- -- 78
2020-03-29 23:00:00 14.8 9 Oeste 20 Sudoeste 0 -- -- 71
2020-03-29 22:00:00 15.1 8 Oeste 16 Oeste 0 -- -- 69
2020-03-29 21:00:00 16.4 9 Oeste 25 Oeste 0 -- -- 61
2020-03-29 20:00:00 17.5 15 Oeste 26 Oeste 0 -- -- 55
2020-03-29 19:00:00 19.5 8 Oeste 17 Sudoeste 0 -- -- 40
2020-03-29 18:00:00 20.1 3 Norte 12 Oeste 0 -- -- 41
2020-03-29 17:00:00 19.6 4 Oeste 14 Sudoeste 0 -- -- 41
2020-03-29 16:00:00 20.5 4 Oeste 11 Noroeste 0 -- -- 41
2020-03-29 15:00:00 19 5 Norte 15 Nordeste 0 -- -- 46
2020-03-29 14:00:00 19.3 4 Sur 13 Este 0 -- -- 48
2020-03-29 13:00:00 17.3 5 Este 18 Nordeste 0 -- -- 53
2020-03-29 12:00:00 16.6 6 Nordeste 14 Nordeste 0 -- -- 61
2020-03-29 11:00:00 15.4 8 Nordeste 14 Nordeste 0 -- -- 68
2020-03-29 10:00:00 12.8 0 Calma 8 Sudeste 0 -- -- 78
2020-03-29 09:00:00 8.9 5 Este 7 Este 0 -- -- 89
2020-03-29 08:00:00 8.1 0 Calma 8 Este 0 -- -- 89
2020-03-29 07:00:00 7.9 4 Sudeste 6 Este 0 -- -- 88
2020-03-29 06:00:00 8.8 4 Este 9 Sudeste 0 -- -- 89
2020-03-29 05:00:00 8.3 3 Este 6 Este 0 -- -- 87
2020-03-29 03:00:00 10.1 0 Calma 5 Sur 0 -- -- 84
2020-03-29 01:00:00 10.3 3 Sur 7 Oeste 0 -- -- 82
2020-03-29 00:00:00 11.6 7 Oeste 12 Oeste 0 -- -- 79
2020-03-28 23:00:00 12.5 6 Oeste 14 Oeste 0 -- -- 75
2020-03-28 22:00:00 13.7 7 Sudoeste 14 Sudoeste 0 -- -- 71
2020-03-28 21:00:00 14.5 8 Sudoeste 19 Oeste 0 -- -- 66
2020-03-28 20:00:00 16.1 11 Sudoeste 25 Sudoeste 0 -- -- 57
2020-03-28 19:00:00 17.3 9 Sudoeste 20 Sudoeste 0 -- -- 51
2020-03-28 18:00:00 18.6 5 Sudoeste 15 Sudoeste 0 -- -- 44
2020-03-28 17:00:00 19.5 0 Calma 12 Norte 0 -- -- 39
2020-03-28 16:00:00 19.1 4 Noroeste 14 Norte 0 -- -- 40
2020-03-28 15:00:00 19.8 3 Oeste 20 Sudoeste 0 -- -- 41
2020-03-28 14:00:00 18.1 8 Sudoeste 23 Sudoeste 0 -- -- 42
2020-03-28 13:00:00 18.1 4 Sur 17 Sudoeste 0 -- -- 47
2020-03-28 12:00:00 16.6 4 Este 16 Sudoeste 0 -- -- 51
2020-03-28 11:00:00 15.4 6 Sur 13 Sudoeste 0 -- -- 59
2020-03-28 10:00:00 14.1 3 Sudeste 9 Sudeste 0 -- -- 71
2020-03-28 09:00:00 10.7 3 Este 12 Este 0 -- -- 85
2020-03-28 08:00:00 8 0 Calma 9 Sudeste 0 -- -- 90
2020-03-28 07:00:00 8.2 5 Sudeste 10 Este 0 -- -- 91
2020-03-28 06:00:00 7 8 Sur 11 Sur 0 -- -- 90
2020-03-28 05:00:00 8.2 4 Sudeste 9 Sudeste 0 -- -- 90
2020-03-28 04:00:00 7.8 6 Sudeste 9 Sur 0 -- -- 90
2020-03-28 03:00:00 7.3 6 Sur 9 Sudeste 0 -- -- 89
2020-03-28 02:00:00 8.4 8 Sudeste 10 Sudeste 0 -- -- 87
2020-03-28 01:00:00 8.9 5 Sudeste 8 Sudeste 0 -- -- 86
2020-03-28 00:00:00 9.5 5 Este 8 Sudeste 0 -- -- 84
2020-03-27 23:00:00 9.1 5 Sur 8 Sudoeste 0 -- -- 79
2020-03-27 22:00:00 10.6 5 Sudoeste 12 Sudoeste 0 -- -- 73
2020-03-27 21:00:00 11.4 7 Sudoeste 17 Sudoeste 0 -- -- 69
2020-03-27 20:00:00 13.1 11 Oeste 21 Oeste 0 -- -- 61
2020-03-27 19:00:00 15.1 12 Oeste 23 Oeste 0 -- -- 52
2020-03-27 18:00:00 16.4 8 Oeste 28 Oeste 0 -- -- 47
2020-03-27 17:00:00 17.2 10 Oeste 29 Oeste 0 -- -- 49
2020-03-27 16:00:00 17.2 15 Sudoeste 30 Oeste 0 -- -- 46
2020-03-27 15:00:00 16.8 18 Sudoeste 32 Oeste 0 -- -- 49
2020-03-27 14:00:00 16.3 19 Sudoeste 38 Oeste 0 -- -- 51
2020-03-27 13:00:00 14.7 18 Sudoeste 33 Sudoeste 0 -- -- 54
2020-03-27 12:00:00 14.5 17 Sudoeste 31 Sudoeste 0 -- -- 46
2020-03-27 11:00:00 13.8 18 Sudoeste 30 Sudoeste 0 -- -- 54
2020-03-27 10:00:00 11 14 Sudoeste 26 Oeste 0 -- -- 77
2020-03-27 09:00:00 9.4 16 Sudoeste 28 Sudoeste 0 -- -- 86
2020-03-27 08:00:00 8.2 9 Sudoeste 18 Sudoeste 0 -- -- 92
2020-03-27 07:00:00 8.4 12 Sudoeste 21 Sudoeste 0 -- -- 92
2020-03-27 06:00:00 8.5 12 Sudoeste 22 Sudoeste 0 -- -- 92
2020-03-27 05:00:00 9 10 Sudoeste 17 Sudoeste 0 -- -- 90
2020-03-27 04:00:00 9.5 10 Sudoeste 17 Sudoeste 0 -- -- 90
2020-03-27 03:00:00 10.2 9 Sudoeste 16 Sudoeste 0 -- -- 89
2020-03-27 02:00:00 10.5 8 Sudoeste 15 Sudoeste 0 -- -- 87
2020-03-27 01:00:00 11.6 11 Sudoeste 16 Sudoeste 0 -- -- 85
2020-03-27 00:00:00 12.6 11 Sudoeste 19 Sudoeste 0 -- -- 82
2020-03-26 23:00:00 13.3 11 Sudoeste 22 Sudoeste 0 -- -- 80
2020-03-26 22:00:00 13.1 11 Sudoeste 19 Sudoeste 0 -- -- 82
2020-03-26 21:00:00 14.5 13 Sudoeste 25 Oeste 0 -- -- 75
2020-03-26 20:00:00 16 16 Oeste 35 Oeste 0 -- -- 58
2020-03-26 19:00:00 18 23 Oeste 38 Oeste 0 -- -- 53
2020-03-26 18:00:00 19.5 25 Oeste 41 Oeste 0 -- -- 46
2020-03-26 17:00:00 21.4 10 Oeste 29 Oeste 0 -- -- 34
2020-03-26 16:00:00 21.4 8 Oeste 27 Oeste 0 -- -- 36
2020-03-26 15:00:00 21.2 5 Oeste 28 Oeste 0 -- -- 42
2020-03-26 14:00:00 19.7 11 Oeste 26 Oeste 0 -- -- 46
2020-03-26 13:00:00 18.3 14 Oeste 31 Sudoeste 0 -- -- 53
2020-03-26 12:00:00 17.2 17 Sudoeste 33 Oeste 0 -- -- 62
2020-03-26 11:00:00 16.1 17 Sudoeste 30 Oeste 0 -- -- 72
2020-03-26 10:00:00 14.2 11 Sudoeste 22 Sudoeste 0 -- -- 79
2020-03-26 09:00:00 13.5 12 Sudoeste 21 Sudoeste 0 -- -- 78
2020-03-26 08:00:00 12.4 11 Sudoeste 17 Sudoeste 0 -- -- 81
2020-03-26 07:00:00 12.1 10 Sudoeste 18 Sudoeste 0 -- -- 82
2020-03-26 06:00:00 11.6 10 Sudoeste 16 Sudoeste 0 -- -- 82
2020-03-26 05:00:00 11 9 Sudoeste 14 Sudoeste 0 -- -- 85
2020-03-26 04:00:00 10.6 8 Sudoeste 13 Sudoeste 0 -- -- 85
2020-03-26 03:00:00 11 9 Sudoeste 13 Sur 0 -- -- 84
2020-03-26 02:00:00 10.8 7 Sur 10 Sudoeste 0 -- -- 86
2020-03-26 01:00:00 11.1 7 Sudoeste 17 Sudoeste 0 -- -- 82
2020-03-26 00:00:00 12.2 9 Sudoeste 17 Sudoeste 0 -- -- 79
2020-03-25 23:00:00 13 9 Sudoeste 19 Sudoeste 0 -- -- 79
2020-03-25 22:00:00 13.9 12 Sudoeste 23 Sudoeste 0 -- -- 82
2020-03-25 21:00:00 14.8 8 Sudoeste 19 Oeste 0 -- -- 73
2020-03-25 20:00:00 14.9 8 Sudoeste 21 Oeste 0 -- -- 70
2020-03-25 19:00:00 17 11 Sudoeste 22 Sudoeste 0 -- -- 58
2020-03-25 18:00:00 17.8 13 Oeste 21 Oeste 0 -- -- 54
2020-03-25 17:00:00 17.6 11 Sudoeste 22 Sudoeste 0 -- -- 53
2020-03-25 16:00:00 18.8 5 Oeste 20 Sudoeste 0 -- -- 54
2020-03-25 15:00:00 18 8 Oeste 19 Sudoeste 0 -- -- 57
2020-03-25 14:00:00 16.6 4 Oeste 24 Sudoeste 0 -- -- 59
2020-03-25 13:00:00 16.1 12 Sudoeste 21 Oeste 0 -- -- 57
2020-03-25 12:00:00 14.5 14 Oeste 23 Oeste 0 -- -- 68
2020-03-25 11:00:00 14.3 8 Oeste 16 Sudoeste 0 -- -- 81
2020-03-25 10:00:00 13.5 0 Calma 9 Noroeste 0 -- -- 86
2020-03-25 09:00:00 12.9 4 Noroeste 13 Sudoeste 0 -- -- 90
2020-03-25 08:00:00 12.5 9 Sudoeste 14 Oeste 0 -- -- 92
2020-03-25 07:00:00 12.6 6 Sudoeste 10 Sudoeste 0.1 -- -- 92
2020-03-25 06:00:00 12.6 5 Sudoeste 8 Sudoeste 1.2 -- -- 92
2020-03-25 05:00:00 12.6 0 Calma 4 Sudoeste 0 -- -- 92
2020-03-25 04:00:00 12.4 0 Calma 6 Oeste 0 -- -- 92
2020-03-25 03:00:00 12.1 0 Calma -- -- 0 -- -- 91
2020-03-25 02:00:00 11.6 0 Calma -- -- 0 -- -- 90
2020-03-25 01:00:00 11.9 0 Calma -- -- 0 -- -- 89
2020-03-25 00:00:00 12.3 0 Calma 8 Oeste 0 -- -- 88
2020-03-24 23:00:00 13.2 0 Calma 12 Oeste 0 -- -- 87
2020-03-24 22:00:00 13.9 7 Sudoeste 12 Sudoeste 0 -- -- 86
2020-03-24 21:00:00 14.8 8 Sudoeste 18 Sudoeste 0 -- -- 83
2020-03-24 20:00:00 15.4 10 Sudoeste 22 Sudoeste 0 -- -- 80
2020-03-24 19:00:00 16.7 12 Sudoeste 19 Sudoeste 0 -- -- 75
2020-03-24 18:00:00 19.4 0 Calma 8 Norte 0 -- -- 50
2020-03-24 17:00:00 19.3 3 Norte 17 Nordeste 0 -- -- 47
2020-03-24 16:00:00 18.9 12 Nordeste 22 Nordeste 0 -- -- 46
2020-03-24 15:00:00 18.9 12 Nordeste 20 Nordeste 0 -- -- 47
2020-03-24 14:00:00 17.8 10 Este 17 Nordeste 0 -- -- 51
2020-03-24 13:00:00 17 9 Este 18 Este 0 -- -- 57
2020-03-24 12:00:00 15.4 10 Nordeste 18 Este 0 -- -- 63
2020-03-24 11:00:00 14.2 11 Este 22 Nordeste 0 -- -- 65
2020-03-24 10:00:00 12 6 Este 12 Nordeste 0 -- -- 84
2020-03-24 09:00:00 10.4 6 Este 17 Nordeste 0 -- -- 90
2020-03-24 08:00:00 9.6 9 Nordeste 13 Nordeste 0 -- -- 93
2020-03-24 07:00:00 9.5 10 Nordeste 14 Nordeste 0 -- -- 93
2020-03-24 06:00:00 9.3 4 Este 12 Nordeste 0 -- -- 92
2020-03-24 05:00:00 9.9 10 Nordeste 14 Nordeste 0 -- -- 92
2020-03-24 04:00:00 10 9 Nordeste 12 Nordeste 0 -- -- 91
2020-03-24 03:00:00 10.1 3 Nordeste 14 Nordeste 0 -- -- 89
2020-03-24 02:00:00 10.5 10 Nordeste 15 Este 0 -- -- 86
2020-03-24 01:00:00 10.9 9 Nordeste 14 Nordeste 0 -- -- 85
2020-03-24 00:00:00 11.1 9 Nordeste 21 Este 0 -- -- 84
2020-03-23 23:00:00 11.2 11 Nordeste 22 Este 2.5 -- -- 87
2020-03-23 22:00:00 12.2 12 Este 23 Este 0 -- -- 75
2020-03-23 21:00:00 12.8 9 Este 14 Este 0 -- -- 70
2020-03-23 20:00:00 14 6 Este 12 Este 0 -- -- 64
2020-03-23 19:00:00 15.8 0 Calma 8 Oeste 0 -- -- 57
2020-03-23 18:00:00 15.8 4 Sudoeste 9 Sudoeste 0.1 -- -- 57
2020-03-23 17:00:00 15 3 Norte 9 Oeste 0.4 -- -- 61
2020-03-23 16:00:00 14.4 12 Sur 28 Sudeste 0.5 -- -- 60
2020-03-23 15:00:00 17.8 13 Este 33 Nordeste 0 -- -- 45
2020-03-23 14:00:00 17.7 13 Este 25 Nordeste 0 -- -- 46
2020-03-23 13:00:00 17 15 Nordeste 24 Este 0 -- -- 51
2020-03-23 12:00:00 15.7 13 Este 24 Este 0 -- -- 57
2020-03-23 11:00:00 13.6 9 Nordeste 15 Nordeste 0 -- -- 68
2020-03-23 10:00:00 11.6 8 Este 12 Este 0 -- -- 78
2020-03-23 09:00:00 8.5 4 Este 6 Este 0 -- -- 91
2020-03-23 08:00:00 5.8 3 Nordeste 7 Norte 0 -- -- 92
2020-03-23 07:00:00 6.2 0 Calma 5 Este 0 -- -- 92
2020-03-23 06:00:00 6.5 3 Este 6 Este 0 -- -- 92
2020-03-23 05:00:00 6.4 0 Calma -- -- 0 -- -- 91
2020-03-23 04:00:00 7.1 0 Calma 6 Sudeste 0 -- -- 91
2020-03-23 03:00:00 7.2 5 Sur 7 Sur 0 -- -- 91
2020-03-23 02:00:00 7.4 6 Sur 9 Sur 0 -- -- 90
2020-03-23 01:00:00 7.9 5 Sur 7 Sur 0 -- -- 90
2020-03-23 00:00:00 8.2 5 Sur 8 Sur 0 -- -- 90
2020-03-22 23:00:00 9 6 Sur 8 Sur 0 -- -- 89
2020-03-22 22:00:00 9.9 0 Calma 8 Sur 0 -- -- 86
2020-03-22 21:00:00 10.9 4 Sur 6 Sur 0 -- -- 81
2020-03-22 20:00:00 12.4 0 Calma 7 Sudeste 0 -- -- 76
2020-03-22 19:00:00 13.5 5 Sudeste 10 Sudeste 0 -- -- 71
2020-03-22 18:00:00 14.4 5 Sudeste 10 Sudeste 0 -- -- 68
2020-03-22 17:00:00 13.7 7 Este 16 Este 0 -- -- 69
2020-03-22 16:00:00 13.1 9 Nordeste 26 Norte 2.4 -- -- 75
2020-03-22 15:00:00 15.3 0 Calma 17 Norte 0 -- -- 62
2020-03-22 14:00:00 14.5 5 Nordeste 13 Norte 0 -- -- 64
2020-03-22 13:00:00 12.9 5 Sudoeste 13 Oeste 0.1 -- -- 70
2020-03-22 12:00:00 13.5 4 Norte 8 Oeste 0.2 -- -- 70
2020-03-22 11:00:00 12 4 Sudoeste 8 Sudoeste 0 -- -- 78
2020-03-22 10:00:00 10.6 0 Calma 5 Sudeste 0 -- -- 87
2020-03-22 09:00:00 9.1 0 Calma 4 Sudeste 0 -- -- 92
2020-03-22 08:00:00 7.7 2 Sudeste 8 Este 0 -- -- 92
2020-03-22 07:00:00 7.5 0 Calma 6 Sudoeste 0 -- -- 92
2020-03-22 06:00:00 7.6 4 Sur 8 Sur 0 -- -- 92
2020-03-22 05:00:00 7.4 6 Sur 9 Sudoeste 0 -- -- 91
2020-03-22 04:00:00 7.7 6 Sur 9 Sur 0 -- -- 90
2020-03-22 03:00:00 8.6 8 Sur 14 Sur 0 -- -- 89
2020-03-22 02:00:00 9.6 10 Sur 19 Sur 0 -- -- 88
2020-03-22 01:00:00 10 13 Sur 23 Sur 0.4 -- -- 89
2020-03-22 00:00:00 9.7 8 Sur 12 Sur 1 -- -- 88
2020-03-21 23:00:00 9.4 3 Sudoeste 16 Sur 0.3 -- -- 86
2020-03-21 22:00:00 8.9 14 Sur 18 Sur 0 -- -- 85
2020-03-21 21:00:00 9 9 Sur 15 Sudoeste 0 -- -- 87
2020-03-21 20:00:00 10.1 7 Sudoeste 26 Sudoeste 0.8 -- -- 82
2020-03-21 19:00:00 10.4 2 Noroeste 29 Oeste 0.2 -- -- 80
2020-03-21 18:00:00 12.2 4 Oeste 26 Sudoeste 7.5 -- -- 86
2020-03-21 17:00:00 11.6 2 Sudeste 45 Sur 0 -- -- 72
2020-03-21 16:00:00 13.5 25 Sur 41 Sur 0 -- -- 71
2020-03-21 15:00:00 12.6 22 Sur 34 Sur 0.5 -- -- 77
2020-03-21 14:00:00 12.1 13 Sudoeste 21 Sur 0.6 -- -- 83
2020-03-21 13:00:00 10.4 10 Oeste 32 Oeste 3.3 -- -- 80
2020-03-21 12:00:00 14.5 13 Sudoeste 32 Sudoeste 0 -- -- 64
2020-03-21 11:00:00 14.5 12 Sudoeste 23 Sudoeste 0 -- -- 64
2020-03-21 10:00:00 12.6 14 Sudoeste 21 Sudoeste 0 -- -- 74
2020-03-21 09:00:00 11.2 7 Sur 11 Sur 0 -- -- 83
2020-03-21 08:00:00 9.8 7 Sudoeste 14 Sudoeste 0 -- -- 89
2020-03-21 07:00:00 9.4 5 Sudeste 8 Sur 0 -- -- 91
2020-03-21 06:00:00 10.1 4 Sudoeste 16 Sudoeste 0 -- -- 90
2020-03-21 05:00:00 10.4 8 Sudoeste 15 Sudoeste 0 -- -- 90
2020-03-21 04:00:00 10.8 10 Sudoeste 19 Oeste 0 -- -- 90
2020-03-21 03:00:00 11 12 Sudoeste 24 Sudoeste 1 -- -- 92
2020-03-21 02:00:00 11.4 14 Sudoeste 29 Sudoeste 4.6 -- -- 92
2020-03-21 01:00:00 11.8 19 Sudoeste 39 Oeste 7.3 -- -- 92
2020-03-21 00:00:00 15.2 10 Sudoeste 18 Sur 0 -- -- 72
2020-03-20 23:00:00 15.1 5 Sudoeste 14 Sudoeste 0 -- -- 69
2020-03-20 22:00:00 15.5 7 Oeste 18 Sur 0 -- -- 63
2020-03-20 21:00:00 15.9 11 Sur 18 Sudeste 0 -- -- 61
2020-03-20 20:00:00 15.9 4 Sudoeste 17 Sudoeste 0 -- -- 61
2020-03-20 19:00:00 17.7 11 Sudoeste 18 Sudoeste 0 -- -- 55
2020-03-20 18:00:00 19.3 7 Sudoeste 16 Sur 0 -- -- 48
2020-03-20 17:00:00 19.5 7 Sur 15 Sur 0 -- -- 49
2020-03-20 16:00:00 19.6 4 Oeste 12 Sudoeste 0 -- -- 54
2020-03-20 15:00:00 18.4 6 Sur 13 Sudoeste 0 -- -- 51
2020-03-20 14:00:00 20.1 0 Calma 9 Oeste 0 -- -- 46
2020-03-20 13:00:00 18.1 3 Norte 9 Sudoeste 0 -- -- 52
2020-03-20 12:00:00 17 6 Oeste 12 Oeste 0 -- -- 54
2020-03-20 11:00:00 16.6 2 Noroeste 10 Sudoeste 0 -- -- 58
2020-03-20 10:00:00 14.3 2 Sudoeste 6 Sudoeste 0 -- -- 72
2020-03-20 09:00:00 11.9 0 Calma 6 Nordeste 0 -- -- 82
2020-03-20 08:00:00 10.7 0 Calma 4 Sur 0 -- -- 84
2020-03-20 07:00:00 10.8 5 Sur 12 Este 0 -- -- 81
2020-03-20 06:00:00 11.5 9 Este 15 Este 0 -- -- 82
2020-03-20 05:00:00 11.8 9 Este 14 Este 0 -- -- 82
2020-03-20 04:00:00 12.4 6 Este 12 Este 0 -- -- 82
2020-03-20 03:00:00 12.4 4 Este 7 Este 0 -- -- 79
2020-03-20 02:00:00 13.8 0 Calma 6 Norte 0 -- -- 74
2020-03-20 01:00:00 14.4 0 Calma 5 Norte 0 -- -- 70
2020-03-20 00:00:00 14.4 2 Noroeste 6 Noroeste 0 -- -- 69
2020-03-19 23:00:00 14.9 2 Noroeste 8 Oeste 0 -- -- 66
2020-03-19 22:00:00 15.6 4 Sudoeste 10 Sudeste 0 -- -- 61
2020-03-19 21:00:00 17.2 4 Sudeste 11 Este 0 -- -- 55
2020-03-19 20:00:00 18.6 4 Este 9 Sudeste 0 -- -- 51
2020-03-19 19:00:00 19.7 6 Sudeste 13 Sur 0 -- -- 46
2020-03-19 18:00:00 20.4 8 Sudeste 20 Sur 0 -- -- 45
2020-03-19 17:00:00 21.4 9 Sur 18 Sur 0 -- -- 45
2020-03-19 16:00:00 22.2 6 Sudoeste 16 Sudoeste 0 -- -- 43
2020-03-19 15:00:00 21.8 11 Sur 20 Sudeste 0 -- -- 42
2020-03-19 14:00:00 20.7 8 Este 23 Este 0 -- -- 47
2020-03-19 13:00:00 19.8 12 Este 27 Este 0 -- -- 50
2020-03-19 12:00:00 19.8 15 Este 30 Este 0 -- -- 53
2020-03-19 11:00:00 17.7 17 Este 33 Este 0 -- -- 57
2020-03-19 10:00:00 16.9 15 Este 31 Este 0 -- -- 61
2020-03-19 09:00:00 14.4 18 Este 29 Este 0 -- -- 68
2020-03-19 08:00:00 13.9 17 Este 27 Este 0 -- -- 69
2020-03-19 07:00:00 11.8 4 Este 8 Este 0 -- -- 79
2020-03-19 06:00:00 11.9 4 Sudeste 11 Sudeste 0 -- -- 79
2020-03-19 05:00:00 11.2 4 Sudeste 10 Sur 0 -- -- 79
2020-03-19 04:00:00 11.2 5 Sur 8 Norte 0 -- -- 76
2020-03-19 03:00:00 12.4 4 Norte 12 Nordeste 0 -- -- 72
2020-03-19 02:00:00 14.4 3 Noroeste 16 Este 0 -- -- 58
2020-03-19 01:00:00 15.3 8 Este 19 Sudeste 0 -- -- 55
2020-03-19 00:00:00 16.8 10 Sudeste 17 Sudeste 0 -- -- 50
2020-03-18 23:00:00 17.3 8 Sudeste 17 Sudeste 0 -- -- 48
2020-03-18 22:00:00 17.6 10 Sudeste 18 Sudeste 0 -- -- 47
2020-03-18 21:00:00 18.1 9 Sudeste 21 Sudeste 0 -- -- 46
2020-03-18 20:00:00 19.2 10 Este 24 Sudeste 0 -- -- 43
2020-03-18 19:00:00 20 10 Este 25 Este 0 -- -- 43
2020-03-18 18:00:00 20.7 13 Este 31 Este 0 -- -- 43
2020-03-18 17:00:00 21.9 16 Este 34 Este 0 -- -- 41
2020-03-18 16:00:00 21.3 17 Este 40 Este 0 -- -- 42
2020-03-18 15:00:00 22 24 Sudeste 44 Sudeste 0 -- -- 42
2020-03-18 14:00:00 21.1 23 Sudeste 46 Sudeste 0 -- -- 45
2020-03-18 13:00:00 20.5 26 Sudeste 43 Sudeste 0 -- -- 46
2020-03-18 12:00:00 20.7 17 Este 36 Este 0 -- -- 49
2020-03-18 11:00:00 18.6 20 Este 35 Este 0 -- -- 58
2020-03-18 10:00:00 16.3 18 Este 28 Este 0 -- -- 68
2020-03-18 09:00:00 14.7 17 Este 25 Este 0 -- -- 72
2020-03-18 08:00:00 12.8 12 Este 24 Nordeste 0 -- -- 76
2020-03-18 07:00:00 12.3 14 Nordeste 26 Este 0 -- -- 75
2020-03-18 06:00:00 13 19 Nordeste 28 Nordeste 0 -- -- 72
2020-03-18 05:00:00 12.4 15 Nordeste 35 Este 0 -- -- 76
2020-03-18 04:00:00 15.6 22 Este 32 Este 0 -- -- 68
2020-03-18 03:00:00 12.8 17 Nordeste 30 Este 0 -- -- 74
2020-03-18 02:00:00 11 9 Este 14 Este 0 -- -- 79
2020-03-18 01:00:00 9.9 6 Este 10 Nordeste 0 -- -- 82
2020-03-18 00:00:00 10.9 3 Este 5 Este 0 -- -- 75
2020-03-17 23:00:00 11.5 4 Oeste 15 Este 0 -- -- 70
2020-03-17 22:00:00 12.4 8 Este 16 Nordeste 0 -- -- 68
2020-03-17 21:00:00 13.6 7 Nordeste 14 Este 0 -- -- 61
2020-03-17 20:00:00 14.9 8 Este 21 Este 0 -- -- 50
2020-03-17 19:00:00 16.4 6 Este 21 Este 0 -- -- 46
2020-03-17 18:00:00 16.8 8 Este 32 Este 0 -- -- 41
2020-03-17 17:00:00 16.9 18 Este 35 Sudeste 0 -- -- 38
2020-03-17 16:00:00 16.4 17 Sudeste 44 Este 0 -- -- 42
2020-03-17 15:00:00 15.9 24 Sudeste 42 Sudeste 0 -- -- 46
2020-03-17 14:00:00 17.3 22 Sudeste 40 Sudeste 0 -- -- 37
2020-03-17 13:00:00 14.7 15 Este 27 Este 0 -- -- 55
2020-03-17 12:00:00 12.7 15 Este 27 Este 0 -- -- 68
2020-03-17 11:00:00 10.8 14 Este 30 Sudeste 0 -- -- 64
2020-03-17 10:00:00 10.7 19 Sudeste 31 Sudeste 0 -- -- 68
2020-03-17 09:00:00 8.6 5 Este 22 Este 0.2 -- -- 87
2020-03-17 08:00:00 8 7 Este 11 Este 0 -- -- 89
2020-03-17 07:00:00 7.8 4 Este 13 Sudeste 0.3 -- -- 88
2020-03-17 06:00:00 7.7 12 Sur 18 Sudeste 0.8 -- -- 88
2020-03-17 05:00:00 7.7 11 Sur 19 Sur 0.1 -- -- 84
2020-03-17 04:00:00 7.2 10 Sur 15 Sur 0 -- -- 89
2020-03-17 03:00:00 7.6 8 Sur 20 Sudoeste 0 -- -- 90
2020-03-17 02:00:00 8.3 11 Sudoeste 18 Sudoeste 0.7 -- -- 89
2020-03-17 01:00:00 8.9 8 Oeste 14 Oeste 0.5 -- -- 84
2020-03-17 00:00:00 8.9 5 Sudoeste 8 Sur 0.4 -- -- 86
2020-03-16 23:00:00 9.2 6 Sudoeste 7 Sudoeste 0 -- -- 83
2020-03-16 22:00:00 9.3 2 Norte 19 Norte 0.3 -- -- 77
2020-03-16 21:00:00 10.1 4 Norte 38 Norte 0 -- -- 67
2020-03-16 20:00:00 11.7 22 Norte 42 Noroeste 0 -- -- 46
2020-03-16 19:00:00 14 11 Norte 26 Norte 0 -- -- 39
2020-03-16 18:00:00 14.4 10 Norte 18 Norte 0 -- -- 37
2020-03-16 17:00:00 14.9 10 Noroeste 24 Norte 0 -- -- 36
2020-03-16 16:00:00 14.8 10 Noroeste 30 Noroeste 0 -- -- 36
2020-03-16 15:00:00 15.2 9 Noroeste 28 Noroeste 0 -- -- 35
2020-03-16 14:00:00 14.9 9 Noroeste 23 Noroeste 0 -- -- 37
2020-03-16 13:00:00 14.7 6 Noroeste 26 Oeste 0 -- -- 41
2020-03-16 12:00:00 12.6 11 Norte 27 Norte 0 -- -- 42
2020-03-16 11:00:00 11.7 9 Norte 18 Noroeste 0 -- -- 46
2020-03-16 10:00:00 10.6 9 Norte 22 Norte 0 -- -- 48
2020-03-16 09:00:00 9.4 8 Norte 13 Norte 0 -- -- 52
2020-03-16 08:00:00 8.1 8 Norte 13 Norte 0 -- -- 51
2020-03-16 07:00:00 10.1 8 Norte 16 Norte 0 -- -- 48
2020-03-16 06:00:00 11.2 8 Norte 18 Norte 0 -- -- 49
2020-03-16 05:00:00 11.7 8 Norte 18 Norte 0 -- -- 47
2020-03-16 04:00:00 13 12 Norte 26 Norte 0 -- -- 47
2020-03-16 03:00:00 13.8 14 Norte 32 Norte 0 -- -- 58
2020-03-16 02:00:00 15.2 13 Oeste 26 Sudoeste 0 -- -- 81
2020-03-16 01:00:00 15.5 9 Sudoeste 19 Sudoeste 0 -- -- 78
2020-03-16 00:00:00 15.2 12 Sudoeste 19 Sudoeste 0 -- -- 79
2020-03-15 23:00:00 14.9 10 Oeste 17 Oeste 0 -- -- 77
2020-03-15 22:00:00 14.7 13 Sudoeste 23 Oeste 0 -- -- 74
2020-03-15 21:00:00 15.8 14 Oeste 27 Oeste 0 -- -- 69
2020-03-15 20:00:00 18 10 Oeste 26 Oeste 0 -- -- 58
2020-03-15 19:00:00 20.7 17 Oeste 27 Oeste 0 -- -- 45
2020-03-15 18:00:00 22.8 3 Oeste 19 Oeste 0 -- -- 42
2020-03-15 17:00:00 22.8 5 Oeste 19 Noroeste 0 -- -- 42
2020-03-15 16:00:00 22.9 5 Oeste 20 Oeste 0 -- -- 44
2020-03-15 15:00:00 21 6 Norte 13 Norte 0 -- -- 49
2020-03-15 14:00:00 21 2 Norte 9 Nordeste 0 -- -- 50
2020-03-15 13:00:00 20.1 2 Noroeste 8 Norte 0 -- -- 53
2020-03-15 12:00:00 18.8 3 Noroeste 9 Norte 0 -- -- 58
2020-03-15 11:00:00 16.8 4 Este 8 Nordeste 0 -- -- 70
2020-03-15 10:00:00 13.9 0 Calma 5 Este 0 -- -- 83
2020-03-15 09:00:00 12.1 0 Calma 6 Sudeste 0 -- -- 88
2020-03-15 08:00:00 9.3 5 Sur 7 Sur 0 -- -- 88
2020-03-15 07:00:00 10.5 3 Sudeste 7 Sudeste 0 -- -- 88
2020-03-15 06:00:00 10.3 0 Calma 3 Norte 0 -- -- 87
2020-03-15 05:00:00 10.1 0 Calma 6 Sudoeste 0 -- -- 86
2020-03-15 04:00:00 9.8 3 Sur 7 Sur 0 -- -- 84
2020-03-15 03:00:00 10.4 4 Sur 7 Sur 0 -- -- 84
2020-03-15 02:00:00 11 5 Sudeste 6 Sur 0 -- -- 82
2020-03-15 01:00:00 11.5 5 Sur 7 Sur 0 -- -- 79
2020-03-15 00:00:00 12.3 5 Sur 11 Sudoeste 0 -- -- 78
2020-03-14 23:00:00 13.5 8 Sudoeste 13 Sudoeste 0 -- -- 73
2020-03-14 22:00:00 14.4 8 Sudoeste 13 Sudoeste 0 -- -- 68
2020-03-14 21:00:00 15.6 0 Calma 2 Norte 0 -- -- 58
2020-03-14 20:00:00 18.9 0 Calma 3 Nordeste 0 -- -- 54
2020-03-14 19:00:00 21 0 Calma 5 Norte 0 -- -- 48
2020-03-14 18:00:00 21.1 2 Noroeste 9 Norte 0 -- -- 48
2020-03-14 17:00:00 21.2 3 Oeste 9 Nordeste 0 -- -- 49
2020-03-14 16:00:00 20.2 0 Calma 11 Norte 0 -- -- 54
2020-03-14 15:00:00 19 0 Calma 10 Nordeste 0 -- -- 60
2020-03-14 14:00:00 17.5 5 Nordeste 12 Norte 0 -- -- 64
2020-03-14 13:00:00 16.2 4 Norte 11 Norte 0 -- -- 69
2020-03-14 12:00:00 15 2 Nordeste 8 Nordeste 0 -- -- 75
2020-03-14 11:00:00 14.3 3 Norte 8 Sudoeste 0 -- -- 81
2020-03-14 10:00:00 13.3 2 Sur 7 Sur 0 -- -- 89
2020-03-14 09:00:00 12.5 5 Sur 8 Sur 0 -- -- 92
2020-03-14 08:00:00 11.4 3 Sudeste 6 Sur 0 -- -- 93
2020-03-14 07:00:00 10.8 5 Sudeste 7 Sudeste 0 -- -- 93
2020-03-14 06:00:00 10.4 4 Sudeste 6 Sur 0 -- -- 93
2020-03-14 05:00:00 9.9 0 Calma 4 Norte 0 -- -- 93
2020-03-14 04:00:00 9.9 0 Calma 4 Sudoeste 0 -- -- 93
2020-03-14 03:00:00 10.8 4 Sur 10 Sur 0 -- -- 92
2020-03-14 02:00:00 11.7 9 Sur 12 Sur 0 -- -- 91
2020-03-14 01:00:00 12.5 8 Sudoeste 13 Sudoeste 0 -- -- 89
2020-03-14 00:00:00 13 8 Sudoeste 14 Sudoeste 0 -- -- 88
2020-03-13 23:00:00 13.1 6 Sudoeste 12 Sudoeste 0 -- -- 83
2020-03-13 22:00:00 14 5 Sudoeste 14 Oeste 0 -- -- 77
2020-03-13 21:00:00 15.5 9 Oeste 17 Sudoeste 0 -- -- 70
2020-03-13 20:00:00 17.3 10 Oeste 19 Oeste 0 -- -- 61
2020-03-13 19:00:00 19.9 10 Oeste 18 Sudoeste 0 -- -- 51
2020-03-13 18:00:00 21.6 7 Oeste 20 Oeste 0 -- -- 47
2020-03-13 17:00:00 22.7 8 Oeste 24 Sudoeste 0 -- -- 46
2020-03-13 16:00:00 22.8 6 Oeste 21 Sudoeste 0 -- -- 43
2020-03-13 15:00:00 21.5 7 Oeste 22 Oeste 0 -- -- 44
2020-03-13 14:00:00 20.2 6 Sudoeste 17 Oeste 0 -- -- 49
2020-03-13 13:00:00 18.3 7 Sudoeste 16 Sudoeste 0 -- -- 56
2020-03-13 12:00:00 16.4 7 Sudoeste 28 Sudoeste 0 -- -- 64
2020-03-13 11:00:00 14.7 8 Sudoeste 15 Sudoeste 0 -- -- 72
2020-03-13 10:00:00 14.1 7 Sudoeste 14 Sudoeste 0 -- -- 76
2020-03-13 09:00:00 13.1 6 Oeste 13 Sudoeste 0 -- -- 83
2020-03-13 08:00:00 12.7 5 Sudoeste 9 Sudoeste 0 -- -- 91
2020-03-13 07:00:00 12.6 4 Sudoeste 14 Oeste 0 -- -- 93
2020-03-13 06:00:00 12.6 7 Sudoeste 14 Oeste 0 -- -- 93
2020-03-13 05:00:00 12.5 5 Sudoeste 8 Sudoeste 0 -- -- 93
2020-03-13 04:00:00 10.7 4 Sur 5 Sur 0 -- -- 93
2020-03-13 03:00:00 9.7 3 Sudoeste 7 Sur 0 -- -- 91
2020-03-13 02:00:00 9.3 0 Calma 6 Sudoeste 0 -- -- 90
2020-03-13 01:00:00 11.1 4 Sudoeste 5 Sudoeste 0 -- -- 89
2020-03-13 00:00:00 11.9 0 Calma 5 Sur 0 -- -- 86
2020-03-12 23:00:00 12.6 4 Sur 14 Sudoeste 0 -- -- 82
2020-03-12 22:00:00 14.8 6 Sudoeste 12 Sudoeste 0 -- -- 79
2020-03-12 21:00:00 16.1 7 Oeste 15 Oeste 0 -- -- 74
2020-03-12 20:00:00 17.7 5 Oeste 13 Oeste 0 -- -- 65
2020-03-12 19:00:00 19.4 2 Oeste 19 Oeste 0 -- -- 55
2020-03-12 18:00:00 22.9 4 Oeste 18 Oeste 0 -- -- 46
2020-03-12 17:00:00 25 12 Oeste 26 Oeste 0 -- -- 41
2020-03-12 16:00:00 24.7 10 Oeste 26 Oeste 0 -- -- 42
2020-03-12 15:00:00 23.5 6 Oeste 20 Sudoeste 0 -- -- 43
2020-03-12 14:00:00 22.2 6 Sudoeste 17 Oeste 0 -- -- 45
2020-03-12 13:00:00 21.2 4 Oeste 11 Noroeste 0 -- -- 49
2020-03-12 12:00:00 17.3 5 Noroeste 10 Noroeste 0 -- -- 70
2020-03-12 11:00:00 14.7 3 Oeste 9 Noroeste 0 -- -- 85
2020-03-12 10:00:00 12.8 3 Oeste 9 Sudoeste 0 -- -- 90
2020-03-12 09:00:00 11.1 4 Sudoeste 11 Sudoeste 0 -- -- 88
2020-03-12 08:00:00 10.2 6 Sudoeste 11 Oeste 0 -- -- 76
2020-03-12 07:00:00 10.1 4 Sudoeste 9 Oeste 0 -- -- 75
2020-03-12 06:00:00 10.1 4 Sudeste 8 Sudeste 0 -- -- 78
2020-03-12 05:00:00 9.8 6 Sudeste 14 Sudeste 0 -- -- 76
2020-03-12 04:00:00 10.3 5 Sur 10 Sudeste 0 -- -- 75
2020-03-12 03:00:00 10.2 5 Sur 9 Sudeste 0 -- -- 75
2020-03-12 02:00:00 10.7 6 Sur 7 Sur 0 -- -- 74
2020-03-12 01:00:00 11.1 5 Sur 6 Sur 0 -- -- 67
2020-03-12 00:00:00 14.5 0 Calma 5 Este 0 -- -- 60
2020-03-11 23:00:00 16.3 0 Calma 10 Sudoeste 0 -- -- 58
2020-03-11 22:00:00 16.4 4 Sudoeste 10 Oeste 0 -- -- 54
2020-03-11 21:00:00 19.7 3 Sudeste 5 Sur 0 -- -- 49
2020-03-11 20:00:00 23.8 2 Sudeste 7 Sudoeste 0 -- -- 37
2020-03-11 19:00:00 28.2 2 Sudeste 7 Sur 0 -- -- 31
2020-03-11 18:00:00 30.4 2 Sur 8 Sur 0 -- -- 27
2020-03-11 17:00:00 30.5 0 Calma 8 Este 0 -- -- 27
2020-03-11 16:00:00 30.2 3 Sudeste 14 Este 0 -- -- 27
2020-03-11 15:00:00 29.3 6 Este 14 Este 0 -- -- 30
2020-03-11 14:00:00 28.5 7 Este 12 Este 0 -- -- 31
2020-03-11 13:00:00 27 5 Este 14 Este 0 -- -- 37
2020-03-11 12:00:00 23.8 5 Nordeste 18 Nordeste 0 -- -- 42
2020-03-11 11:00:00 19.7 4 Norte 10 Este 0 -- -- 50
2020-03-11 10:00:00 17.3 3 Nordeste 10 Sudeste 0 -- -- 57
2020-03-11 09:00:00 11.7 6 Sudeste 10 Sudeste 0 -- -- 75
2020-03-11 08:00:00 8.4 4 Este 8 Este 0 -- -- 83
2020-03-11 07:00:00 8.4 3 Nordeste 7 Sudeste 0 -- -- 82
2020-03-11 06:00:00 8.5 3 Sudeste 8 Sur 0 -- -- 80
2020-03-11 05:00:00 8.5 5 Sur 8 Sur 0 -- -- 79
2020-03-11 04:00:00 9.1 5 Sur 9 Sudeste 0 -- -- 75
2020-03-11 03:00:00 9.3 6 Sudoeste 9 Sudoeste 0 -- -- 74
2020-03-11 02:00:00 10.1 5 Sur 9 Sudoeste 0 -- -- 68
2020-03-11 01:00:00 11.8 3 Oeste 12 Oeste 0 -- -- 66
2020-03-11 00:00:00 13.4 2 Nordeste 11 Norte 0 -- -- 62
2020-03-10 23:00:00 14.9 2 Nordeste 7 Sudoeste 0 -- -- 57
2020-03-10 22:00:00 16.1 8 Sudoeste 12 Sudoeste 0 -- -- 52
2020-03-10 21:00:00 17.2 5 Sudoeste 12 Sur 0 -- -- 46
2020-03-10 20:00:00 21 4 Sudeste 8 Este 0 -- -- 35
2020-03-10 19:00:00 24 6 Este 14 Nordeste 0 -- -- 35
2020-03-10 18:00:00 25.8 11 Nordeste 20 Nordeste 0 -- -- 31
2020-03-10 17:00:00 26.5 12 Este 21 Nordeste 0 -- -- 31
2020-03-10 16:00:00 26.5 10 Este 23 Nordeste 0 -- -- 31
2020-03-10 15:00:00 25.9 9 Nordeste 20 Nordeste 0 -- -- 32
2020-03-10 14:00:00 24.2 14 Este 31 Nordeste 0 -- -- 34
2020-03-10 13:00:00 22.3 19 Este 28 Nordeste 0 -- -- 38
2020-03-10 12:00:00 20.3 18 Nordeste 26 Nordeste 0 -- -- 42
2020-03-10 11:00:00 17.4 15 Este 26 Nordeste 0 -- -- 47
2020-03-10 10:00:00 14.5 15 Nordeste 23 Este 0 -- -- 55
2020-03-10 09:00:00 12.7 12 Este 21 Este 0 -- -- 61
2020-03-10 08:00:00 10.7 10 Este 19 Nordeste 0 -- -- 66
2020-03-10 07:00:00 10.3 10 Nordeste 14 Este 0 -- -- 68
2020-03-10 06:00:00 9.3 8 Este 13 Este 0 -- -- 70
2020-03-10 05:00:00 10.3 6 Nordeste 12 Este 0 -- -- 67
2020-03-10 04:00:00 11.2 6 Este 15 Este 0 -- -- 64
2020-03-10 03:00:00 10.4 6 Este 10 Este 0 -- -- 66
2020-03-10 02:00:00 11.5 6 Este 15 Este 0 -- -- 64
2020-03-10 01:00:00 10.1 8 Este 12 Este 0 -- -- 68
2020-03-10 00:00:00 11.7 3 Este 8 Sudeste 0 -- -- 64
2020-03-09 23:00:00 11.6 5 Sudeste 9 Sudeste 0 -- -- 61
2020-03-09 22:00:00 13.4 5 Sur 9 Sudeste 0 -- -- 57
2020-03-09 21:00:00 15.6 3 Noroeste 9 Oeste 0 -- -- 50
2020-03-09 20:00:00 16.9 3 Sur 6 Sur 0 -- -- 41
2020-03-09 19:00:00 21.6 0 Calma 14 Noroeste 0 -- -- 36
2020-03-09 18:00:00 21.9 8 Norte 16 Norte 0 -- -- 34
2020-03-09 17:00:00 22.2 10 Norte 18 Norte 0 -- -- 33
2020-03-09 16:00:00 21.7 9 Norte 17 Norte 0 -- -- 38
2020-03-09 15:00:00 20.8 10 Nordeste 20 Nordeste 0 -- -- 38
2020-03-09 14:00:00 20.3 13 Norte 21 Norte 0 -- -- 42
2020-03-09 13:00:00 19 9 Nordeste 16 Norte 0 -- -- 49
2020-03-09 12:00:00 17.8 6 Nordeste 17 Nordeste 0 -- -- 56
2020-03-09 11:00:00 16 10 Nordeste 17 Nordeste 0 -- -- 62
2020-03-09 10:00:00 13.6 7 Nordeste 11 Nordeste 0 -- -- 68
2020-03-09 09:00:00 10 0 Calma 7 Este 0 -- -- 75
2020-03-09 08:00:00 7.2 5 Este 8 Este 0 -- -- 80
2020-03-09 07:00:00 6.3 2 Este 6 Nordeste 0 -- -- 73
2020-03-09 06:00:00 7.4 0 Calma 9 Este 0 -- -- 73
2020-03-09 05:00:00 7.5 5 Sudeste 7 Sudeste 0 -- -- 72
2020-03-09 04:00:00 8.4 3 Este 10 Este 0 -- -- 70
2020-03-09 03:00:00 7.8 4 Nordeste 8 Sudeste 0 -- -- 71
2020-03-09 02:00:00 8.8 7 Sudeste 10 Sudeste 0 -- -- 65
2020-03-09 01:00:00 9.8 7 Sudeste 9 Sudeste 0 -- -- 62
2020-03-09 00:00:00 11.4 4 Sudoeste 6 Sudoeste 0 -- -- 53
2020-03-08 23:00:00 13.1 6 Sudoeste 12 Sudoeste 0 -- -- 48
2020-03-08 22:00:00 15.3 9 Sudoeste 13 Sudoeste 0 -- -- 43
2020-03-08 21:00:00 16.1 8 Sudoeste 11 Sudoeste 0 -- -- 41
2020-03-08 20:00:00 17.2 4 Sur 5 Sur 0 -- -- 35
2020-03-08 19:00:00 21.2 0 Calma 8 Noroeste 0 -- -- 31
2020-03-08 18:00:00 21.5 9 Norte 17 Norte 0 -- -- 29
2020-03-08 17:00:00 22.4 5 Norte 14 Noroeste 0 -- -- 29
2020-03-08 16:00:00 22.3 6 Nordeste 14 Norte 0 -- -- 30
2020-03-08 15:00:00 22 3 Nordeste 14 Nordeste 0 -- -- 31
2020-03-08 14:00:00 20.8 6 Nordeste 17 Nordeste 0 -- -- 34
2020-03-08 13:00:00 19.3 8 Este 19 Nordeste 0 -- -- 36
2020-03-08 12:00:00 17.9 10 Nordeste 17 Nordeste 0 -- -- 42
2020-03-08 11:00:00 14.8 12 Nordeste 17 Nordeste 0 -- -- 50
2020-03-08 10:00:00 11.4 11 Nordeste 17 Nordeste 0 -- -- 58
2020-03-08 09:00:00 7.5 3 Nordeste 10 Nordeste 0 -- -- 72
2020-03-08 08:00:00 3.8 4 Nordeste 9 Nordeste 0 -- -- 76
2020-03-08 07:00:00 3.4 0 Calma 9 Nordeste 0 -- -- 69
2020-03-08 06:00:00 5.5 6 Nordeste 10 Nordeste 0 -- -- 70
2020-03-08 05:00:00 6.2 9 Este 13 Este 0 -- -- 69
2020-03-08 04:00:00 5.9 6 Este 12 Este 0 -- -- 70
2020-03-08 03:00:00 5.2 4 Este 6 Este 0 -- -- 67
2020-03-08 02:00:00 6.8 0 Calma 6 Este 0 -- -- 65
2020-03-08 01:00:00 7.9 3 Nordeste 6 Norte 0 -- -- 61
2020-03-08 00:00:00 8.5 0 Calma 3 Sur 0 -- -- 59
2020-03-07 23:00:00 9 2 Sudeste 9 Este 0 -- -- 56
2020-03-07 22:00:00 9.8 0 Calma 8 Este 0 -- -- 48
2020-03-07 21:00:00 12.4 4 Sudeste 8 Este 0 -- -- 38
2020-03-07 20:00:00 16.3 3 Sudeste 9 Este 0 -- -- 33
2020-03-07 19:00:00 18.2 7 Este 26 Sudeste 0 -- -- 31
2020-03-07 18:00:00 19.1 16 Este 32 Este 0 -- -- 28
2020-03-07 17:00:00 19.6 18 Este 29 Este 0 -- -- 29
2020-03-07 16:00:00 19.4 18 Nordeste 31 Nordeste 0 -- -- 30
2020-03-07 15:00:00 19.6 18 Este 34 Este 0 -- -- 30
2020-03-07 14:00:00 18.7 18 Este 33 Este 0 -- -- 31
2020-03-07 13:00:00 18.2 17 Nordeste 28 Este 0 -- -- 31
2020-03-07 12:00:00 15.9 18 Este 32 Este 0 -- -- 37
2020-03-07 11:00:00 13.1 14 Este 23 Este 0 -- -- 50
2020-03-07 10:00:00 11.3 13 Este 24 Este 0 -- -- 57
2020-03-07 09:00:00 7.1 10 Este 19 Este 0 -- -- 72
2020-03-07 08:00:00 6 10 Este 17 Este 0 -- -- 74
2020-03-07 07:00:00 5.8 5 Este 10 Este 0 -- -- 81
2020-03-07 06:00:00 5.4 7 Nordeste 10 Nordeste 0 -- -- 80
2020-03-07 05:00:00 4.9 4 Sudeste 12 Norte 0 -- -- 76
2020-03-07 04:00:00 5.6 7 Nordeste 11 Nordeste 0 -- -- 78
2020-03-07 03:00:00 5.9 0 Calma 6 Sur 0 -- -- 75
2020-03-07 02:00:00 6 4 Sur 8 Sudeste 0 -- -- 63
2020-03-07 01:00:00 10 4 Norte 8 Norte 0 -- -- 63
2020-03-07 00:00:00 10.2 4 Norte 10 Noroeste 0 -- -- 59
2020-03-06 23:00:00 10.9 5 Norte 12 Norte 0 -- -- 55
2020-03-06 22:00:00 11.5 5 Norte 11 Noroeste 0 -- -- 53
2020-03-06 21:00:00 12.6 2 Norte 13 Noroeste 0 -- -- 48
2020-03-06 20:00:00 14.8 4 Noroeste 16 Norte 0 -- -- 43
2020-03-06 19:00:00 16.6 13 Norte 21 Norte 0 -- -- 38
2020-03-06 18:00:00 18.4 9 Noroeste 23 Norte 0 -- -- 36
2020-03-06 17:00:00 18.4 9 Noroeste 23 Norte 0 -- -- 35
2020-03-06 16:00:00 18.1 8 Noroeste 26 Norte 0 -- -- 36
2020-03-06 15:00:00 17.4 14 Norte 28 Norte 0 -- -- 37
2020-03-06 14:00:00 17.3 6 Noroeste 20 Noroeste 0 -- -- 42
2020-03-06 13:00:00 15.8 9 Noroeste 18 Noroeste 0 -- -- 45
2020-03-06 12:00:00 14.8 8 Noroeste 20 Norte 0 -- -- 48
2020-03-06 11:00:00 14.6 5 Oeste 22 Sudoeste 0 -- -- 68
2020-03-06 10:00:00 11.5 10 Sudoeste 17 Sudoeste 0 -- -- 76
2020-03-06 09:00:00 8 6 Sudoeste 16 Sudoeste 0 -- -- 87
2020-03-06 08:00:00 6.1 10 Sudoeste 14 Sudoeste 0 -- -- 89
2020-03-06 07:00:00 4.5 7 Sudoeste 13 Oeste 0 -- -- 85
2020-03-06 06:00:00 7 4 Oeste 8 Sudoeste 0 -- -- 84
2020-03-06 05:00:00 7.1 2 Oeste 6 Noroeste 0 -- -- 82
2020-03-06 04:00:00 7.5 0 Calma 12 Noroeste 0 -- -- 81
2020-03-06 03:00:00 7.4 0 Calma 10 Norte 0 -- -- 78
2020-03-06 02:00:00 7.2 3 Sudoeste 10 Sudoeste 0 -- -- 73
2020-03-06 01:00:00 9.2 3 Noroeste 10 Noroeste 0 -- -- 67
2020-03-06 00:00:00 10.9 0 Calma 12 Noroeste 0 -- -- 63
2020-03-05 23:00:00 10.9 6 Noroeste 13 Noroeste 0 -- -- 62
2020-03-05 22:00:00 12.1 0 Calma 10 Noroeste 0 -- -- 56
2020-03-05 21:00:00 12.9 0 Calma 11 Oeste 0 -- -- 55
2020-03-05 20:00:00 14.6 0 Calma 8 Oeste 0 -- -- 50
2020-03-05 19:00:00 16.7 0 Calma 19 Noroeste 0 -- -- 45
2020-03-05 18:00:00 18.5 8 Noroeste 20 Norte 0 -- -- 41
2020-03-05 17:00:00 18.6 3 Noroeste 17 Norte 0 -- -- 49
2020-03-05 16:00:00 17.8 3 Oeste 22 Sudoeste 0 -- -- 57
2020-03-05 15:00:00 17.5 10 Oeste 28 Oeste 0 -- -- 60
2020-03-05 14:00:00 15.8 16 Oeste 28 Oeste 0 -- -- 67
2020-03-05 13:00:00 15.4 14 Oeste 24 Oeste 0 -- -- 72
2020-03-05 12:00:00 13.9 12 Sudoeste 30 Sudoeste 0 -- -- 81
2020-03-05 11:00:00 11.8 16 Sudoeste 27 Sudoeste 0 -- -- 89
2020-03-05 10:00:00 10.7 8 Sudoeste 20 Sudoeste 0 -- -- 93
2020-03-05 09:00:00 9.9 11 Sudoeste 18 Sudoeste 0 -- -- 93
2020-03-05 08:00:00 8.7 4 Sudoeste 11 Oeste 0 -- -- 92
2020-03-05 07:00:00 8.1 5 Sudoeste 8 Sudoeste 0 -- -- 91
2020-03-05 06:00:00 7.1 4 Sudoeste 9 Sudoeste 0 -- -- 90
2020-03-05 05:00:00 7.7 5 Sur 7 Sur 0 -- -- 90
2020-03-05 04:00:00 8.2 4 Sur 7 Sur 0 -- -- 90
2020-03-05 03:00:00 8.2 5 Sur 8 Sur 0 -- -- 89
2020-03-05 02:00:00 9 6 Sur 8 Sur 0 -- -- 88
2020-03-05 01:00:00 9.5 6 Sur 10 Sur 0 -- -- 86
2020-03-05 00:00:00 10.3 8 Sur 9 Sudoeste 0 -- -- 82